UAL1578 KSFO-KSBA
Flight info
| Callsign | UAL1578 |
|---|---|
| Flight time | 0h 41m |
| Altitude | 31000 |
| Route | WESLA5 YYUNG GVO HABUT |
| Aircraft | B738/M-SDE2E3FGHIRWXY/LB1 |
Departure
| Time | 2026-04-30 21:20 |
|---|---|
| Airport | San Francisco International Airport (KSFO) |
Arrival
| Time | 2026-04-30 22:01 |
|---|---|
| Airport | Santa Barbara Municipal Airport (KSBA) |
| Time | Latitude | Longitude | Altitude | Speed | Heading |
|---|---|---|---|---|---|
| 2026-04-30 20:44 | 37.61639 | -122.38080 | 21 ft | 0 kts | 345° |
| 2026-04-30 21:10 | 37.61615 | -122.38074 | 22 ft | 4 kts | 4° |
| 2026-04-30 21:11 | 37.61592 | -122.38083 | 22 ft | 4 kts | 53° |
| 2026-04-30 21:11 | 37.61588 | -122.38107 | 23 ft | 2 kts | 118° |
| 2026-04-30 21:11 | 37.61589 | -122.38108 | 22 ft | 0 kts | 118° |
| 2026-04-30 21:14 | 37.61582 | -122.38091 | 25 ft | 7 kts | 118° |
| 2026-04-30 21:14 | 37.61585 | -122.38025 | 24 ft | 8 kts | 53° |
| 2026-04-30 21:14 | 37.61647 | -122.37975 | 22 ft | 14 kts | 33° |
| 2026-04-30 21:15 | 37.61674 | -122.37859 | 21 ft | 15 kts | 97° |
| 2026-04-30 21:15 | 37.61662 | -122.37735 | 21 ft | 14 kts | 96° |
| 2026-04-30 21:15 | 37.61649 | -122.37610 | 22 ft | 15 kts | 98° |
| 2026-04-30 21:15 | 37.61634 | -122.37466 | 23 ft | 19 kts | 97° |
| 2026-04-30 21:16 | 37.61617 | -122.37294 | 21 ft | 20 kts | 98° |
| 2026-04-30 21:16 | 37.61562 | -122.37138 | 21 ft | 19 kts | 118° |
| 2026-04-30 21:16 | 37.61500 | -122.36988 | 22 ft | 19 kts | 118° |
| 2026-04-30 21:16 | 37.61420 | -122.36862 | 21 ft | 18 kts | 133° |
| 2026-04-30 21:17 | 37.61346 | -122.36737 | 21 ft | 18 kts | 117° |
| 2026-04-30 21:17 | 37.61290 | -122.36599 | 21 ft | 18 kts | 117° |
| 2026-04-30 21:17 | 37.61233 | -122.36463 | 23 ft | 17 kts | 119° |
| 2026-04-30 21:17 | 37.61178 | -122.36335 | 21 ft | 17 kts | 118° |
| 2026-04-30 21:18 | 37.61125 | -122.36209 | 22 ft | 16 kts | 118° |
| 2026-04-30 21:18 | 37.61073 | -122.36089 | 23 ft | 15 kts | 118° |
| 2026-04-30 21:18 | 37.61054 | -122.35964 | 21 ft | 15 kts | 69° |
| 2026-04-30 21:18 | 37.61131 | -122.35882 | 21 ft | 16 kts | 28° |
| 2026-04-30 21:19 | 37.61216 | -122.35944 | 21 ft | 19 kts | 298° |
| 2026-04-30 21:19 | 37.61369 | -122.36308 | 22 ft | 82 kts | 297° |
| 2026-04-30 21:19 | 37.61742 | -122.37194 | 27 ft | 144 kts | 298° |
| 2026-04-30 21:19 | 37.62244 | -122.38408 | 500 ft | 162 kts | 296° |
| 2026-04-30 21:20 | 37.62762 | -122.39705 | 1218 ft | 172 kts | 296° |
| 2026-04-30 21:20 | 37.63316 | -122.40987 | 1985 ft | 161 kts | 298° |
| 2026-04-30 21:20 | 37.63880 | -122.42251 | 2296 ft | 168 kts | 299° |
| 2026-04-30 21:20 | 37.64460 | -122.43558 | 2636 ft | 174 kts | 300° |
| 2026-04-30 21:21 | 37.65053 | -122.44895 | 3038 ft | 175 kts | 300° |
| 2026-04-30 21:21 | 37.65665 | -122.46279 | 3274 ft | 190 kts | 300° |
| 2026-04-30 21:21 | 37.66754 | -122.49580 | 3527 ft | 225 kts | 268° |
| 2026-04-30 21:22 | 37.66215 | -122.51509 | 3858 ft | 245 kts | 232° |
| 2026-04-30 21:22 | 37.61175 | -122.52422 | 5975 ft | 274 kts | 161° |
| 2026-04-30 21:23 | 37.59378 | -122.51618 | 6892 ft | 276 kts | 160° |
| 2026-04-30 21:23 | 37.57551 | -122.50812 | 7661 ft | 282 kts | 161° |
| 2026-04-30 21:23 | 37.53735 | -122.49273 | 9241 ft | 293 kts | 162° |
| 2026-04-30 21:24 | 37.51766 | -122.48518 | 10027 ft | 299 kts | 162° |
| 2026-04-30 21:24 | 37.49739 | -122.47760 | 10556 ft | 313 kts | 166° |
| 2026-04-30 21:24 | 37.47493 | -122.47617 | 10800 ft | 336 kts | 187° |
| 2026-04-30 21:24 | 37.45105 | -122.48043 | 11060 ft | 357 kts | 189° |
| 2026-04-30 21:25 | 37.40115 | -122.49045 | 12268 ft | 371 kts | 189° |
| 2026-04-30 21:25 | 37.37553 | -122.49551 | 12981 ft | 374 kts | 189° |
| 2026-04-30 21:25 | 37.34963 | -122.50051 | 13675 ft | 379 kts | 189° |
| 2026-04-30 21:26 | 37.29690 | -122.51045 | 14922 ft | 387 kts | 189° |
| 2026-04-30 21:26 | 37.27018 | -122.51542 | 15542 ft | 391 kts | 189° |
| 2026-04-30 21:27 | 37.21587 | -122.52548 | 16756 ft | 398 kts | 189° |
| 2026-04-30 21:27 | 37.18866 | -122.53051 | 17354 ft | 402 kts | 189° |
| 2026-04-30 21:27 | 37.16080 | -122.53567 | 17943 ft | 407 kts | 189° |
| 2026-04-30 21:28 | 37.10429 | -122.54610 | 19017 ft | 414 kts | 190° |
| 2026-04-30 21:28 | 37.07570 | -122.55138 | 19566 ft | 417 kts | 190° |
| 2026-04-30 21:28 | 37.01767 | -122.55957 | 20605 ft | 426 kts | 177° |
| 2026-04-30 21:29 | 36.98868 | -122.55154 | 21100 ft | 431 kts | 158° |
| 2026-04-30 21:29 | 36.90984 | -122.49471 | 22528 ft | 443 kts | 149° |
| 2026-04-30 21:30 | 36.85703 | -122.45489 | 23441 ft | 450 kts | 149° |
| 2026-04-30 21:31 | 36.77550 | -122.39466 | 24612 ft | 458 kts | 150° |
| 2026-04-30 21:31 | 36.72014 | -122.35417 | 25352 ft | 464 kts | 150° |
| 2026-04-30 21:32 | 36.66406 | -122.31324 | 26064 ft | 470 kts | 151° |
| 2026-04-30 21:32 | 36.63577 | -122.29261 | 26408 ft | 473 kts | 151° |
| 2026-04-30 21:32 | 36.60768 | -122.27215 | 26740 ft | 475 kts | 151° |
| 2026-04-30 21:32 | 36.57907 | -122.25131 | 27071 ft | 478 kts | 151° |
| 2026-04-30 21:33 | 36.55024 | -122.23033 | 27395 ft | 481 kts | 151° |
| 2026-04-30 21:33 | 36.49221 | -122.18816 | 28019 ft | 486 kts | 151° |
| 2026-04-30 21:33 | 36.46291 | -122.16690 | 28317 ft | 489 kts | 151° |
| 2026-04-30 21:34 | 36.43348 | -122.14555 | 28622 ft | 491 kts | 151° |
| 2026-04-30 21:34 | 36.37432 | -122.10271 | 29364 ft | 492 kts | 152° |
| 2026-04-30 21:34 | 36.34478 | -122.08133 | 29839 ft | 490 kts | 152° |
| 2026-04-30 21:35 | 36.31574 | -122.06035 | 30259 ft | 489 kts | 152° |
| 2026-04-30 21:35 | 36.28632 | -122.03911 | 30600 ft | 489 kts | 152° |
| 2026-04-30 21:35 | 36.25693 | -122.01791 | 30921 ft | 489 kts | 152° |
| 2026-04-30 21:35 | 36.22745 | -121.99666 | 31062 ft | 492 kts | 152° |
| 2026-04-30 21:36 | 36.16829 | -121.95409 | 31044 ft | 490 kts | 152° |
| 2026-04-30 21:37 | 36.05110 | -121.86994 | 31043 ft | 490 kts | 152° |
| 2026-04-30 21:37 | 35.99391 | -121.82428 | 31015 ft | 493 kts | 136° |
| 2026-04-30 21:38 | 35.95106 | -121.75828 | 31036 ft | 493 kts | 127° |
| 2026-04-30 21:38 | 35.90978 | -121.69052 | 31029 ft | 494 kts | 127° |
| 2026-04-30 21:39 | 35.86803 | -121.62327 | 31029 ft | 494 kts | 127° |
| 2026-04-30 21:39 | 35.82622 | -121.55691 | 31027 ft | 493 kts | 128° |
| 2026-04-30 21:40 | 35.78412 | -121.49039 | 31022 ft | 492 kts | 128° |
| 2026-04-30 21:40 | 35.74209 | -121.42405 | 31022 ft | 491 kts | 128° |
| 2026-04-30 21:41 | 35.70012 | -121.35789 | 31018 ft | 490 kts | 128° |
| 2026-04-30 21:41 | 35.65824 | -121.29196 | 31020 ft | 489 kts | 128° |
| 2026-04-30 21:42 | 35.61660 | -121.22656 | 31015 ft | 488 kts | 128° |
| 2026-04-30 21:42 | 35.57471 | -121.16087 | 31014 ft | 488 kts | 128° |
| 2026-04-30 21:43 | 35.53281 | -121.09529 | 30999 ft | 485 kts | 128° |
| 2026-04-30 21:43 | 35.51159 | -121.06344 | 30569 ft | 480 kts | 134° |
| 2026-04-30 21:43 | 35.48722 | -121.03603 | 30073 ft | 469 kts | 140° |
| 2026-04-30 21:44 | 35.46223 | -121.01100 | 29417 ft | 460 kts | 142° |
| 2026-04-30 21:44 | 35.44563 | -120.99495 | 28802 ft | 458 kts | 142° |
| 2026-04-30 21:44 | 35.43420 | -120.98399 | 28363 ft | 458 kts | 142° |
| 2026-04-30 21:44 | 35.40918 | -120.95995 | 27441 ft | 456 kts | 142° |
| 2026-04-30 21:45 | 35.38473 | -120.93619 | 26600 ft | 453 kts | 141° |
| 2026-04-30 21:45 | 35.36031 | -120.91216 | 25852 ft | 447 kts | 141° |
| 2026-04-30 21:45 | 35.33631 | -120.88832 | 25161 ft | 441 kts | 140° |
| 2026-04-30 21:45 | 35.31270 | -120.86473 | 24472 ft | 436 kts | 140° |
| 2026-04-30 21:46 | 35.28940 | -120.84138 | 23803 ft | 431 kts | 140° |
| 2026-04-30 21:46 | 35.26636 | -120.81829 | 23052 ft | 426 kts | 140° |
| 2026-04-30 21:46 | 35.24359 | -120.79548 | 22282 ft | 420 kts | 140° |
| 2026-04-30 21:46 | 35.22111 | -120.77298 | 21541 ft | 415 kts | 140° |
| 2026-04-30 21:47 | 35.19886 | -120.75074 | 20774 ft | 412 kts | 139° |
| 2026-04-30 21:47 | 35.17688 | -120.72879 | 20210 ft | 403 kts | 139° |
| 2026-04-30 21:47 | 35.15568 | -120.70764 | 19738 ft | 395 kts | 139° |
| 2026-04-30 21:47 | 35.13449 | -120.68652 | 19317 ft | 393 kts | 139° |
| 2026-04-30 21:48 | 35.11333 | -120.66543 | 18861 ft | 392 kts | 139° |
| 2026-04-30 21:48 | 35.09226 | -120.64444 | 18425 ft | 390 kts | 139° |
| 2026-04-30 21:48 | 35.07125 | -120.62353 | 17946 ft | 389 kts | 139° |
| 2026-04-30 21:48 | 35.05034 | -120.60274 | 17484 ft | 387 kts | 139° |
| 2026-04-30 21:49 | 35.02952 | -120.58205 | 17042 ft | 384 kts | 139° |
| 2026-04-30 21:49 | 35.00887 | -120.56155 | 16610 ft | 381 kts | 139° |
| 2026-04-30 21:49 | 34.98836 | -120.54120 | 16182 ft | 379 kts | 139° |
| 2026-04-30 21:49 | 34.96826 | -120.52127 | 15767 ft | 376 kts | 139° |
| 2026-04-30 21:50 | 34.94802 | -120.50121 | 15341 ft | 374 kts | 139° |
| 2026-04-30 21:50 | 34.92790 | -120.48129 | 14926 ft | 372 kts | 139° |
| 2026-04-30 21:50 | 34.90791 | -120.46150 | 14509 ft | 370 kts | 139° |
| 2026-04-30 21:50 | 34.88799 | -120.44180 | 14098 ft | 368 kts | 139° |
| 2026-04-30 21:51 | 34.86817 | -120.42220 | 13649 ft | 366 kts | 139° |
| 2026-04-30 21:51 | 34.84848 | -120.40276 | 13300 ft | 361 kts | 139° |
| 2026-04-30 21:51 | 34.82910 | -120.38363 | 12947 ft | 356 kts | 139° |
| 2026-04-30 21:51 | 34.80998 | -120.36477 | 12364 ft | 352 kts | 139° |
| 2026-04-30 21:52 | 34.79106 | -120.34612 | 11737 ft | 347 kts | 139° |
| 2026-04-30 21:52 | 34.77260 | -120.32793 | 11272 ft | 337 kts | 140° |
| 2026-04-30 21:52 | 34.75462 | -120.31022 | 10856 ft | 327 kts | 140° |
| 2026-04-30 21:52 | 34.73739 | -120.29327 | 10648 ft | 311 kts | 140° |
| 2026-04-30 21:53 | 34.72083 | -120.27697 | 10346 ft | 301 kts | 140° |
| 2026-04-30 21:53 | 34.70496 | -120.26136 | 10147 ft | 287 kts | 140° |
| 2026-04-30 21:53 | 34.69003 | -120.24670 | 9974 ft | 274 kts | 140° |
| 2026-04-30 21:53 | 34.67542 | -120.23235 | 9675 ft | 265 kts | 140° |
| 2026-04-30 21:54 | 34.66116 | -120.21835 | 9409 ft | 262 kts | 140° |
| 2026-04-30 21:54 | 34.64703 | -120.20447 | 9166 ft | 260 kts | 140° |
| 2026-04-30 21:54 | 34.63346 | -120.19115 | 8924 ft | 258 kts | 140° |
| 2026-04-30 21:54 | 34.61952 | -120.17748 | 8664 ft | 257 kts | 140° |
| 2026-04-30 21:55 | 34.60567 | -120.16390 | 8407 ft | 255 kts | 140° |
| 2026-04-30 21:55 | 34.59190 | -120.15040 | 8155 ft | 254 kts | 140° |
| 2026-04-30 21:55 | 34.57804 | -120.13682 | 7904 ft | 259 kts | 140° |
| 2026-04-30 21:55 | 34.56383 | -120.12291 | 7645 ft | 266 kts | 140° |
| 2026-04-30 21:56 | 34.54952 | -120.10892 | 7375 ft | 268 kts | 139° |
| 2026-04-30 21:56 | 34.53434 | -120.09568 | 7045 ft | 271 kts | 153° |
| 2026-04-30 21:56 | 34.51588 | -120.09010 | 6627 ft | 279 kts | 175° |
| 2026-04-30 21:56 | 34.49698 | -120.08982 | 6534 ft | 262 kts | 178° |
| 2026-04-30 21:57 | 34.47924 | -120.08968 | 6330 ft | 248 kts | 178° |
| 2026-04-30 21:57 | 34.46197 | -120.08945 | 5789 ft | 250 kts | 178° |
| 2026-04-30 21:57 | 34.44477 | -120.08739 | 5190 ft | 248 kts | 159° |
| 2026-04-30 21:57 | 34.43141 | -120.07507 | 4625 ft | 242 kts | 121° |
| 2026-04-30 21:58 | 34.42625 | -120.05609 | 4081 ft | 237 kts | 96° |
| 2026-04-30 21:58 | 34.42449 | -120.03631 | 3511 ft | 237 kts | 93° |
| 2026-04-30 21:58 | 34.42342 | -120.01624 | 2946 ft | 237 kts | 88° |
| 2026-04-30 21:58 | 34.42369 | -119.99669 | 2657 ft | 228 kts | 84° |
| 2026-04-30 21:59 | 34.42463 | -119.97747 | 2148 ft | 228 kts | 84° |
| 2026-04-30 21:59 | 34.42546 | -119.95906 | 1869 ft | 212 kts | 87° |
| 2026-04-30 21:59 | 34.42548 | -119.94243 | 1668 ft | 185 kts | 89° |
| 2026-04-30 22:00 | 34.42614 | -119.91403 | 1170 ft | 150 kts | 88° |
| 2026-04-30 22:00 | 34.42674 | -119.88974 | 644 ft | 145 kts | 91° |
| 2026-04-30 22:00 | 34.42706 | -119.87784 | 395 ft | 140 kts | 92° |
| 2026-04-30 22:01 | 34.42725 | -119.86600 | 251 ft | 141 kts | 91° |
| 2026-04-30 22:01 | 34.42750 | -119.85397 | 59 ft | 145 kts | 91° |
| 2026-04-30 22:01 | 34.42775 | -119.84260 | 20 ft | 114 kts | 89° |
| 2026-04-30 22:01 | 34.42786 | -119.83592 | 19 ft | 34 kts | 90° |
| 2026-04-30 22:02 | 34.42747 | -119.83463 | 19 ft | 8 kts | 166° |
| 2026-04-30 22:02 | 34.42712 | -119.83460 | 19 ft | 0 kts | 177° |
| 2026-04-30 22:03 | 34.42711 | -119.83460 | 19 ft | 0 kts | 177° |
| 2026-04-30 22:04 | 34.42700 | -119.83463 | 19 ft | 5 kts | 198° |
| 2026-04-30 22:04 | 34.42677 | -119.83535 | 19 ft | 12 kts | 268° |
| 2026-04-30 22:04 | 34.42673 | -119.83728 | 19 ft | 11 kts | 268° |
| 2026-04-30 22:05 | 34.42661 | -119.83818 | 21 ft | 10 kts | 224° |
| 2026-04-30 22:05 | 34.42599 | -119.83812 | 19 ft | 7 kts | 154° |
| 2026-04-30 22:05 | 34.42580 | -119.83761 | 19 ft | 7 kts | 102° |
| 2026-04-30 22:05 | 34.42573 | -119.83713 | 21 ft | 2 kts | 100° |
| 2026-04-30 22:06 | 34.42572 | -119.83710 | 21 ft | 0 kts | 100° |